createdAt,value
2019-05-20T00:00:43.455Z,73.91
2019-05-20T00:03:15.154Z,73.70
2019-05-20T00:05:47.299Z,73.17
2019-05-20T00:08:18.494Z,72.64
2019-05-20T00:10:49.867Z,72.33
2019-05-20T00:13:21.576Z,72.15
2019-05-20T00:15:53.724Z,72.49
2019-05-20T00:18:25.241Z,72.66
2019-05-20T00:20:57.503Z,72.73
2019-05-20T00:23:29.343Z,72.46
2019-05-20T00:26:01.178Z,72.38
2019-05-20T00:28:33.237Z,72.48
2019-05-20T00:31:05.407Z,72.37
2019-05-20T00:33:37.233Z,72.41
2019-05-20T00:36:09.282Z,72.78
2019-05-20T00:38:40.986Z,72.89
2019-05-20T00:41:13.046Z,73.19
2019-05-20T00:43:44.654Z,73.40
2019-05-20T00:46:16.410Z,73.52
2019-05-20T00:48:48.396Z,73.67
2019-05-20T00:51:20.281Z,74.00
2019-05-20T00:53:52.248Z,74.10
2019-05-20T00:56:23.803Z,74.37
2019-05-20T00:58:55.801Z,74.57
2019-05-20T01:01:27.423Z,74.45
2019-05-20T01:03:59.616Z,74.82
2019-05-20T01:06:31.339Z,75.03
2019-05-20T01:09:04.805Z,75.39
2019-05-20T01:11:36.527Z,75.29
2019-05-20T01:14:09.012Z,75.44
2019-05-20T01:16:40.210Z,75.50
2019-05-20T01:19:11.931Z,75.57
2019-05-20T01:21:43.473Z,75.49
2019-05-20T01:24:15.514Z,75.61
2019-05-20T01:26:47.262Z,75.36
2019-05-20T01:29:19.285Z,75.69
2019-05-20T01:31:51.032Z,75.90
2019-05-20T01:34:23.038Z,75.81
2019-05-20T01:36:54.868Z,75.76
2019-05-20T01:39:26.841Z,75.84
2019-05-20T01:41:58.633Z,75.50
2019-05-20T01:44:30.677Z,74.94
2019-05-20T01:47:02.659Z,74.90
2019-05-20T01:49:34.653Z,75.12
2019-05-20T01:52:06.380Z,74.79
2019-05-20T01:54:38.523Z,75.08
2019-05-20T01:57:10.196Z,74.79
2019-05-20T01:59:41.957Z,74.96
2019-05-20T02:02:13.605Z,75.20
2019-05-20T02:04:45.666Z,75.35
2019-05-20T02:07:17.617Z,75.24
2019-05-20T02:09:49.651Z,75.06
2019-05-20T02:12:21.279Z,75.08
2019-05-20T02:15:06.382Z,75.11
2019-05-20T02:17:37.317Z,75.31
2019-05-20T02:20:09.141Z,75.33
2019-05-20T02:22:40.974Z,75.09
2019-05-20T02:25:12.777Z,74.56
2019-05-20T02:27:44.594Z,70.96
2019-05-20T02:30:16.644Z,70.96
2019-05-20T02:32:48.325Z,69.35
2019-05-20T02:35:20.236Z,67.67
2019-05-20T02:37:52.382Z,66.93
2019-05-20T02:40:24.373Z,66.08
2019-05-20T02:42:55.875Z,65.54
2019-05-20T02:45:27.934Z,65.09
2019-05-20T02:47:59.501Z,63.85
2019-05-20T02:50:31.440Z,62.63
2019-05-20T02:53:03.140Z,62.19
2019-05-20T02:55:34.857Z,61.44
2019-05-20T02:58:06.816Z,61.14
2019-05-20T03:00:38.588Z,60.21
2019-05-20T03:03:10.441Z,59.17
2019-05-20T03:05:42.229Z,58.00
2019-05-20T03:08:13.939Z,58.70
2019-05-20T03:10:46.262Z,58.02
2019-05-20T03:13:18.078Z,56.89
2019-05-20T03:15:49.991Z,57.62
2019-05-20T03:18:21.122Z,56.33
2019-05-20T03:20:52.579Z,55.19
2019-05-20T03:23:25.220Z,53.09
2019-05-20T03:25:57.547Z,55.20
2019-05-20T03:28:29.280Z,54.28
2019-05-20T03:31:01.049Z,52.87
2019-05-20T03:33:32.967Z,51.16
2019-05-20T03:36:04.637Z,53.73
2019-05-20T03:38:36.462Z,53.78
2019-05-20T03:41:08.385Z,53.30
2019-05-20T03:43:39.617Z,52.97
2019-05-20T03:46:11.092Z,51.54
2019-05-20T03:48:42.953Z,52.50
2019-05-20T03:51:14.769Z,49.40
2019-05-20T03:53:46.593Z,47.58
2019-05-20T03:56:18.345Z,50.70
2019-05-20T03:58:51.182Z,50.66
2019-05-20T04:01:22.714Z,48.70
2019-05-20T04:03:55.624Z,46.61
2019-05-20T04:06:27.433Z,44.89
2019-05-20T04:08:59.347Z,47.39
2019-05-20T04:11:30.877Z,47.37
2019-05-20T04:14:02.090Z,47.36
2019-05-20T04:16:33.516Z,43.76
2019-05-20T04:19:05.264Z,42.85
2019-05-20T04:21:37.187Z,44.10
2019-05-20T04:24:08.473Z,43.70
2019-05-20T04:26:40.131Z,42.57
2019-05-20T04:29:11.899Z,39.60
2019-05-20T04:31:43.517Z,40.00
2019-05-20T04:34:15.266Z,39.13
2019-05-20T04:36:47.230Z,38.43
2019-05-20T04:39:18.880Z,39.66
2019-05-20T04:41:50.509Z,37.97
2019-05-20T04:44:22.231Z,38.29
2019-05-20T04:46:53.946Z,39.45
2019-05-20T04:49:25.803Z,38.12
2019-05-20T04:51:57.687Z,39.01
2019-05-20T04:54:29.767Z,39.15
2019-05-20T04:57:02.620Z,36.31
2019-05-20T04:59:34.471Z,36.61
2019-05-20T05:02:07.305Z,35.00
2019-05-20T05:04:39.218Z,34.63
2019-05-20T05:07:11.079Z,34.38
2019-05-20T05:09:43.147Z,34.69
2019-05-20T05:12:14.696Z,34.54
2019-05-20T05:14:46.550Z,33.55
2019-05-20T05:17:18.349Z,36.29
2019-05-20T05:19:50.192Z,34.18
2019-05-20T05:22:21.797Z,34.50
2019-05-20T05:24:53.845Z,34.43
2019-05-20T05:27:25.652Z,33.38
2019-05-20T05:29:57.522Z,34.07
2019-05-20T05:32:41.694Z,34.42
2019-05-20T05:35:14.943Z,35.68
2019-05-20T05:37:46.624Z,35.75
2019-05-20T05:40:19.154Z,35.15
2019-05-20T05:42:50.980Z,36.01
2019-05-20T05:45:28.919Z,35.55
2019-05-20T05:47:59.273Z,34.19
2019-05-20T05:50:31.155Z,33.77
2019-05-20T05:53:02.863Z,38.39
2019-05-20T05:55:34.847Z,34.34
2019-05-20T05:58:08.724Z,33.90
2019-05-20T06:00:40.621Z,32.48
2019-05-20T06:03:13.346Z,30.63
2019-05-20T06:05:44.957Z,30.94
2019-05-20T06:08:16.846Z,30.03
2019-05-20T06:10:48.475Z,29.38
2019-05-20T06:13:20.206Z,29.73
2019-05-20T06:15:54.581Z,31.84
2019-05-20T06:18:25.706Z,31.66
2019-05-20T06:20:57.352Z,28.92
2019-05-20T06:23:29.171Z,27.60
2019-05-20T06:26:01.003Z,28.00
2019-05-20T06:28:32.654Z,28.30
2019-05-20T06:31:04.399Z,27.30
2019-05-20T06:33:36.458Z,28.07
2019-05-20T06:36:08.412Z,27.66
2019-05-20T06:38:44.381Z,30.33
2019-05-20T06:41:16.253Z,30.06
2019-05-20T06:43:47.887Z,27.84
2019-05-20T06:46:20.052Z,27.62
2019-05-20T06:48:51.821Z,30.53
2019-05-20T06:51:23.732Z,31.13
2019-05-20T06:53:55.613Z,30.19
2019-05-20T06:56:27.293Z,32.54
2019-05-20T06:59:00.386Z,33.65
2019-05-20T07:01:31.946Z,33.38
2019-05-20T07:04:04.026Z,29.93
2019-05-20T07:06:45.311Z,29.63
2019-05-20T07:09:09.062Z,30.90
2019-05-20T07:11:51.941Z,30.41
2019-05-20T07:14:14.337Z,32.73
2019-05-20T07:16:46.400Z,31.95
2019-05-20T07:19:18.131Z,31.79
2019-05-20T07:21:50.097Z,33.49
2019-05-20T07:24:21.903Z,33.55
2019-05-20T07:26:53.440Z,32.72
2019-05-20T07:29:25.625Z,32.96
2019-05-20T07:31:57.224Z,31.17
2019-05-20T07:34:29.081Z,33.83
2019-05-20T07:37:03.623Z,30.84
2019-05-20T07:39:34.196Z,30.35
2019-05-20T07:42:05.830Z,30.60
2019-05-20T07:44:37.669Z,31.18
2019-05-20T07:47:11.116Z,30.23
2019-05-20T07:49:43.597Z,31.43
2019-05-20T07:52:15.501Z,33.41
2019-05-20T07:54:48.455Z,34.08
2019-05-20T07:57:22.150Z,33.89
2019-05-20T07:59:55.585Z,33.33
2019-05-20T08:02:28.243Z,32.30
2019-05-20T08:04:59.997Z,32.63
2019-05-20T08:07:50.737Z,35.19
2019-05-20T08:10:07.304Z,32.18
2019-05-20T08:12:39.477Z,33.56
2019-05-20T08:15:11.803Z,34.76
2019-05-20T08:17:43.373Z,33.27
2019-05-20T08:20:15.618Z,35.69
2019-05-20T08:22:47.273Z,38.22
2019-05-20T08:25:19.291Z,40.52
2019-05-20T08:27:50.846Z,43.32
2019-05-20T08:30:34.464Z,43.35
2019-05-20T08:33:06.460Z,42.83
2019-05-20T08:35:38.176Z,43.18
2019-05-20T08:38:10.304Z,43.27
2019-05-20T08:40:42.757Z,43.18
2019-05-20T08:43:14.406Z,42.81
2019-05-20T08:45:47.138Z,43.34
2019-05-20T08:48:19.253Z,42.34
2019-05-20T08:50:51.009Z,41.88
2019-05-20T08:53:22.670Z,41.73
2019-05-20T08:55:54.380Z,42.28
2019-05-20T08:58:26.216Z,42.25
2019-05-20T09:00:57.934Z,42.91
2019-05-20T09:03:30.569Z,41.83
2019-05-20T09:06:02.563Z,41.45
2019-05-20T09:08:33.785Z,41.15
2019-05-20T09:11:05.514Z,41.92
2019-05-20T09:13:37.231Z,42.08
2019-05-20T09:16:08.853Z,43.30
2019-05-20T09:18:40.519Z,42.94
2019-05-20T09:21:12.451Z,42.60
2019-05-20T09:23:44.480Z,43.13
2019-05-20T09:26:15.986Z,43.96
2019-05-20T09:28:47.874Z,43.99
2019-05-20T09:31:19.845Z,43.92
2019-05-20T09:33:52.213Z,43.41
2019-05-20T09:36:25.937Z,43.04
2019-05-20T09:38:57.507Z,42.36
2019-05-20T09:41:28.459Z,43.74
2019-05-20T09:44:00.077Z,42.19
2019-05-20T09:46:31.831Z,42.57
2019-05-20T09:49:03.627Z,41.99
2019-05-20T09:51:35.163Z,42.82
2019-05-20T09:54:06.883Z,43.19
2019-05-20T09:56:38.444Z,43.10
2019-05-20T09:59:10.304Z,42.56
2019-05-20T10:01:42.149Z,42.86
2019-05-20T10:04:15.181Z,43.73
2019-05-20T10:06:46.811Z,41.77
2019-05-20T10:09:18.529Z,42.23
2019-05-20T10:11:50.338Z,42.51
2019-05-20T10:14:22.417Z,41.80
2019-05-20T10:16:53.946Z,42.44
2019-05-20T10:19:25.715Z,41.39
2019-05-20T10:21:57.234Z,42.07
2019-05-20T10:24:28.951Z,42.35
2019-05-20T10:27:02.655Z,42.63
2019-05-20T10:29:34.407Z,41.55
2019-05-20T10:32:06.214Z,41.81
2019-05-20T10:34:37.900Z,41.54
2019-05-20T10:37:09.245Z,42.73
2019-05-20T10:39:40.926Z,42.81
2019-05-20T10:42:12.596Z,41.28
2019-05-20T10:44:44.542Z,40.77
2019-05-20T10:47:16.028Z,41.74
2019-05-20T10:49:47.955Z,42.70
2019-05-20T10:52:20.507Z,41.27
2019-05-20T10:54:52.160Z,40.04
2019-05-20T10:57:23.820Z,39.54
2019-05-20T10:59:55.607Z,40.73
2019-05-20T11:02:31.165Z,41.56
2019-05-20T11:05:01.222Z,40.59
2019-05-20T11:07:32.895Z,40.17
2019-05-20T11:10:06.289Z,40.51
2019-05-20T11:12:37.811Z,39.82
2019-05-20T11:15:10.019Z,40.31
2019-05-20T11:17:40.880Z,40.18
2019-05-20T11:20:12.772Z,39.56
2019-05-20T11:22:43.611Z,39.88
2019-05-20T11:25:16.557Z,40.06
2019-05-20T11:27:47.401Z,40.61
2019-05-20T11:30:19.449Z,39.97
2019-05-20T11:32:51.578Z,40.88
2019-05-20T11:35:22.830Z,40.67
2019-05-20T11:37:54.087Z,40.30
2019-05-20T11:40:25.948Z,40.33
2019-05-20T11:42:57.456Z,39.96
2019-05-20T11:45:29.097Z,39.93
2019-05-20T11:48:01.018Z,40.17
2019-05-20T11:50:32.693Z,39.63
2019-05-20T11:53:04.871Z,39.06
2019-05-20T11:55:36.770Z,39.57
2019-05-20T11:58:15.777Z,38.78
2019-05-20T12:00:41.983Z,38.95
2019-05-20T12:03:13.869Z,38.93
2019-05-20T12:05:45.510Z,38.50
2019-05-20T12:08:17.390Z,38.66
2019-05-20T12:10:48.893Z,39.04
2019-05-20T12:13:20.636Z,37.98
2019-05-20T12:15:52.361Z,38.84
2019-05-20T12:18:23.430Z,37.66
2019-05-20T12:20:55.346Z,36.13
2019-05-20T12:23:26.489Z,37.03
2019-05-20T12:25:58.321Z,36.86
2019-05-20T12:28:29.874Z,36.09
2019-05-20T12:31:01.634Z,35.63
2019-05-20T12:33:33.303Z,36.08
2019-05-20T12:36:05.964Z,36.37
2019-05-20T12:38:37.345Z,37.27
2019-05-20T12:41:08.941Z,36.65
2019-05-20T12:43:44.260Z,37.30
2019-05-20T12:46:13.364Z,37.74
2019-05-20T12:48:44.927Z,36.59
2019-05-20T12:51:16.706Z,37.54
2019-05-20T12:53:48.681Z,37.72
2019-05-20T12:56:20.062Z,37.60
2019-05-20T12:58:51.484Z,37.59
2019-05-20T13:01:23.128Z,37.53
2019-05-20T13:03:55.280Z,37.01
2019-05-20T13:06:27.281Z,37.93
2019-05-20T13:08:59.041Z,38.45
2019-05-20T13:11:30.676Z,36.72
2019-05-20T13:14:02.438Z,36.02
2019-05-20T13:16:33.987Z,36.40
2019-05-20T13:19:06.098Z,36.53
2019-05-20T13:21:38.136Z,37.21
2019-05-20T13:24:09.879Z,37.63
2019-05-20T13:26:41.642Z,37.27
2019-05-20T13:29:13.531Z,37.15
2019-05-20T13:31:45.139Z,36.31
2019-05-20T13:34:18.502Z,36.60
2019-05-20T13:36:50.805Z,36.71
2019-05-20T13:39:22.400Z,37.10
2019-05-20T13:41:54.218Z,38.20
2019-05-20T13:44:26.130Z,38.20
2019-05-20T13:46:57.634Z,37.25
2019-05-20T13:49:29.346Z,36.98
2019-05-20T13:52:00.972Z,36.96
2019-05-20T13:54:32.911Z,37.58
2019-05-20T13:57:04.382Z,38.34
2019-05-20T13:59:36.051Z,37.76
2019-05-20T14:02:07.300Z,36.90
2019-05-20T14:04:39.899Z,36.59
2019-05-20T14:07:13.174Z,36.36
2019-05-20T14:09:44.851Z,36.63
2019-05-20T14:12:16.657Z,36.54
2019-05-20T14:14:48.444Z,36.47
2019-05-20T14:17:19.422Z,36.61
2019-05-20T14:19:51.045Z,38.02
2019-05-20T14:22:22.660Z,37.86
2019-05-20T14:24:54.460Z,37.23
2019-05-20T14:27:26.140Z,37.33
2019-05-20T14:29:58.304Z,37.64
2019-05-20T14:32:30.021Z,37.72
2019-05-20T14:35:01.909Z,37.99
2019-05-20T14:37:34.042Z,38.36
2019-05-20T14:40:07.205Z,39.07
2019-05-20T14:42:38.827Z,39.77
2019-05-20T14:45:10.885Z,39.24
2019-05-20T14:47:41.803Z,38.25
2019-05-20T14:50:13.736Z,38.21
2019-05-20T14:52:44.477Z,39.27
2019-05-20T14:55:16.096Z,38.77
2019-05-20T14:57:47.797Z,38.76
2019-05-20T15:00:22.347Z,39.45
2019-05-20T15:02:54.482Z,39.30
2019-05-20T15:05:26.346Z,39.25
2019-05-20T15:07:58.303Z,38.41
2019-05-20T15:10:29.161Z,38.73
2019-05-20T15:13:00.687Z,39.01
2019-05-20T15:15:32.470Z,39.29
2019-05-20T15:18:04.002Z,39.59
2019-05-20T15:20:34.975Z,39.90
2019-05-20T15:23:06.634Z,39.39
2019-05-20T15:25:38.648Z,39.93
2019-05-20T15:28:10.335Z,39.99
2019-05-20T15:30:42.016Z,40.20
2019-05-20T15:33:14.256Z,40.93
2019-05-20T15:35:46.207Z,40.98
2019-05-20T15:38:17.946Z,40.93
2019-05-20T15:40:49.513Z,41.23
2019-05-20T15:43:21.223Z,41.12
2019-05-20T15:45:52.845Z,41.52
2019-05-20T15:48:24.731Z,42.14
2019-05-20T15:50:56.234Z,42.30
2019-05-20T15:53:28.049Z,41.70
2019-05-20T15:55:59.647Z,42.03
2019-05-20T15:58:31.418Z,42.02
2019-05-20T16:01:02.962Z,42.14
2019-05-20T16:03:36.627Z,42.49
2019-05-20T16:06:08.951Z,42.64
2019-05-20T16:08:40.789Z,42.79
2019-05-20T16:11:12.362Z,42.88
2019-05-20T16:13:44.213Z,42.89
2019-05-20T16:16:15.855Z,42.90
2019-05-20T16:18:47.532Z,43.15
2019-05-20T16:21:19.119Z,43.28
2019-05-20T16:23:51.369Z,43.30
2019-05-20T16:26:23.333Z,43.34
2019-05-20T16:28:54.482Z,43.83
2019-05-20T16:31:26.068Z,43.99
2019-05-20T16:33:59.621Z,44.17
2019-05-20T16:36:31.569Z,44.44
2019-05-20T16:39:03.308Z,44.37
2019-05-20T16:41:35.277Z,44.75
2019-05-20T16:44:07.037Z,44.93
2019-05-20T16:46:39.853Z,45.13
2019-05-20T16:49:11.764Z,45.27
2019-05-20T16:51:43.765Z,45.38
2019-05-20T16:54:15.411Z,45.78
2019-05-20T16:56:47.424Z,45.88
2019-05-20T16:59:19.047Z,46.01
2019-05-20T17:01:50.711Z,46.36
2019-05-20T17:04:22.327Z,46.41
2019-05-20T17:06:55.220Z,46.70
2019-05-20T17:09:26.699Z,46.85
2019-05-20T17:11:58.465Z,47.11
2019-05-20T17:14:30.691Z,47.60
2019-05-20T17:17:02.478Z,48.13
2019-05-20T17:19:35.634Z,48.20
2019-05-20T17:22:07.672Z,48.89
2019-05-20T17:24:40.446Z,48.89
2019-05-20T17:27:11.994Z,49.34
2019-05-20T17:29:43.911Z,49.87
2019-05-20T17:32:16.082Z,50.19
2019-05-20T17:34:48.381Z,50.52
2019-05-20T17:37:20.012Z,50.69
2019-05-20T17:39:51.895Z,50.92
2019-05-20T17:42:23.405Z,50.77
2019-05-20T17:44:55.301Z,50.74
2019-05-20T17:47:26.930Z,51.08
2019-05-20T17:49:59.075Z,50.95
2019-05-20T17:52:30.897Z,51.36
2019-05-20T17:55:02.973Z,51.26
2019-05-20T17:57:35.347Z,51.17
2019-05-20T18:00:12.655Z,50.99
2019-05-20T18:02:45.294Z,51.11
2019-05-20T18:05:17.047Z,51.10
2019-05-20T18:07:49.736Z,51.31
2019-05-20T18:10:22.978Z,51.46
2019-05-20T18:12:54.943Z,51.66
2019-05-20T18:15:26.416Z,51.77
2019-05-20T18:17:58.317Z,51.87
2019-05-20T18:20:30.055Z,51.91
2019-05-20T18:23:02.180Z,52.08
2019-05-20T18:25:33.664Z,52.19
2019-05-20T18:28:05.504Z,52.26
2019-05-20T18:30:37.147Z,52.44
2019-05-20T18:33:09.122Z,52.56
2019-05-20T18:35:42.721Z,52.80
2019-05-20T18:38:14.830Z,53.37
2019-05-20T18:40:47.183Z,53.67
2019-05-20T18:43:19.038Z,53.77
2019-05-20T18:45:50.623Z,54.07
2019-05-20T18:48:22.776Z,54.33
2019-05-20T18:50:54.544Z,54.21
2019-05-20T18:53:26.471Z,54.44
2019-05-20T18:55:58.018Z,54.24
2019-05-20T18:58:29.920Z,54.28
2019-05-20T19:01:01.828Z,54.67
2019-05-20T19:03:34.111Z,54.84
2019-05-20T19:06:06.075Z,54.88
2019-05-20T19:08:37.611Z,55.28
2019-05-20T19:11:09.492Z,55.61
2019-05-20T19:13:42.584Z,55.92
2019-05-20T19:16:15.357Z,56.18
2019-05-20T19:18:47.011Z,56.13
2019-05-20T19:21:19.084Z,56.40
2019-05-20T19:23:50.874Z,56.64
2019-05-20T19:26:25.398Z,56.71
2019-05-20T19:28:56.236Z,57.03
2019-05-20T19:31:28.209Z,57.26
2019-05-20T19:34:00.109Z,57.39
2019-05-20T19:36:31.971Z,57.35
2019-05-20T19:39:04.860Z,57.79
2019-05-20T19:41:38.373Z,58.07
2019-05-20T19:44:13.202Z,58.25
2019-05-20T19:46:43.879Z,58.52
2019-05-20T19:49:15.773Z,58.41
2019-05-20T19:51:47.755Z,58.95
2019-05-20T19:54:19.317Z,59.35
2019-05-20T19:56:51.160Z,59.83
2019-05-20T19:59:22.686Z,60.20
2019-05-20T20:01:54.850Z,60.78
2019-05-20T20:04:26.585Z,61.33
2019-05-20T20:06:58.513Z,61.74
2019-05-20T20:09:30.349Z,61.90
2019-05-20T20:12:02.008Z,62.21
2019-05-20T20:14:34.076Z,62.38
2019-05-20T20:17:06.568Z,62.67
2019-05-20T20:19:37.619Z,62.87
2019-05-20T20:22:09.166Z,62.96
2019-05-20T20:24:41.212Z,63.17
2019-05-20T20:27:12.863Z,63.18
2019-05-20T20:29:44.632Z,63.45
2019-05-20T20:32:16.083Z,63.50
2019-05-20T20:34:48.030Z,63.72
2019-05-20T20:37:19.897Z,63.51
2019-05-20T20:39:51.854Z,63.66
2019-05-20T20:42:23.443Z,64.03
2019-05-20T20:44:55.318Z,64.13
2019-05-20T20:47:40.882Z,64.27
2019-05-20T20:50:01.462Z,64.32
2019-05-20T20:52:32.669Z,64.67
2019-05-20T20:55:05.682Z,64.88
2019-05-20T20:57:37.800Z,65.08
2019-05-20T21:00:09.454Z,65.40
2019-05-20T21:02:52.704Z,65.73
2019-05-20T21:05:14.461Z,65.88
2019-05-20T21:07:46.011Z,66.03
2019-05-20T21:10:18.404Z,65.93
2019-05-20T21:12:49.356Z,65.95
2019-05-20T21:15:20.981Z,66.14
2019-05-20T21:17:52.755Z,66.25
2019-05-20T21:20:24.851Z,66.53
2019-05-20T21:22:56.778Z,66.68
2019-05-20T21:25:28.775Z,66.85
2019-05-20T21:28:00.382Z,67.09
2019-05-20T21:30:32.125Z,67.29
2019-05-20T21:33:09.362Z,67.75
2019-05-20T21:35:37.509Z,68.05
2019-05-20T21:38:09.286Z,68.59
2019-05-20T21:40:41.110Z,68.81
2019-05-20T21:43:12.667Z,69.01
2019-05-20T21:45:44.666Z,68.97
2019-05-20T21:48:17.673Z,69.33
2019-05-20T21:50:49.473Z,69.35
2019-05-20T21:53:21.382Z,69.36
2019-05-20T21:55:52.944Z,69.41
2019-05-20T21:58:24.800Z,69.45
2019-05-20T22:00:56.822Z,69.58
2019-05-20T22:03:28.577Z,69.89
2019-05-20T22:06:00.361Z,69.92
2019-05-20T22:08:32.236Z,69.99
2019-05-20T22:11:04.303Z,70.06
2019-05-20T22:13:35.910Z,69.99
2019-05-20T22:16:07.871Z,70.05
2019-05-20T22:18:40.009Z,70.50
2019-05-20T22:21:12.785Z,70.91
2019-05-20T22:23:45.829Z,71.29
2019-05-20T22:26:17.365Z,71.07
2019-05-20T22:28:49.192Z,71.27
2019-05-20T22:31:20.674Z,71.28
2019-05-20T22:33:52.666Z,71.61
2019-05-20T22:36:24.315Z,71.91
2019-05-20T22:38:56.155Z,71.67
2019-05-20T22:41:27.911Z,71.67
2019-05-20T22:43:59.769Z,71.85
2019-05-20T22:46:31.549Z,71.99
2019-05-20T22:49:03.571Z,72.09
2019-05-20T22:51:35.557Z,72.26
2019-05-20T22:54:07.838Z,72.39
2019-05-20T22:56:39.581Z,72.61
2019-05-20T22:59:11.562Z,72.81
2019-05-20T23:01:43.201Z,72.97
2019-05-20T23:04:15.062Z,73.17
2019-05-20T23:06:46.666Z,73.10
2019-05-20T23:09:18.605Z,73.19
2019-05-20T23:11:50.335Z,73.23
2019-05-20T23:14:22.160Z,73.32
2019-05-20T23:16:53.958Z,73.37
2019-05-20T23:19:26.257Z,73.46
2019-05-20T23:21:57.405Z,73.83
2019-05-20T23:24:29.062Z,73.80
2019-05-20T23:27:00.985Z,73.89
2019-05-20T23:29:32.744Z,73.96
2019-05-20T23:32:04.424Z,73.96
2019-05-20T23:34:36.528Z,74.20
2019-05-20T23:37:08.227Z,74.22
2019-05-20T23:39:40.354Z,74.37
2019-05-20T23:42:11.946Z,74.50
2019-05-20T23:44:43.943Z,74.52
2019-05-20T23:47:15.768Z,74.78
2019-05-20T23:49:47.736Z,75.13
2019-05-20T23:52:19.700Z,75.05
2019-05-20T23:54:51.598Z,75.42
2019-05-20T23:57:23.324Z,75.50
2019-05-20T23:59:55.399Z,75.45
